Time;durP1;ratioP1;P1;durP2;ratioP2;P2;SDS_P1;SDS_P2;PMS_P1;PMS_P2;Temp;Humidity;BMP_temperature;BMP_pressure;BME280_temperature;BME280_humidity;BME280_pressure;Samples;Min_cycle;Max_cycle;Signal;HPM_P1;HPM_P2
2023/09/23 00:01:42;;;;;;;;;0.00;0.00;;;;;;;;5030840;28;9471;-72
2023/09/23 00:04:07;;;;;;;;;1.00;0.00;;;;;;;;5030663;28;8907;-72
2023/09/23 00:06:33;;;;;;;;;0.00;0.00;;;;;;;;5030516;28;8811;-72
2023/09/23 00:09:00;;;;;;;;;1.50;0.00;;;;;;;;5030812;28;8863;-72
2023/09/23 00:11:25;;;;;;;;;0.00;0.00;;;;;;;;5030492;28;8847;-72
2023/09/23 00:13:51;;;;;;;;;1.75;0.00;;;;;;;;5029828;28;9568;-72
2023/09/23 00:16:16;;;;;;;;;0.00;0.00;;;;;;;;5045565;28;8807;-71
2023/09/23 00:18:43;;;;;;;;;0.00;0.00;;;;;;;;5030336;28;8836;-72
2023/09/23 00:21:08;;;;;;;;;0.00;0.00;;;;;;;;5030473;28;8806;-72
2023/09/23 00:23:34;;;;;;;;;0.00;0.00;;;;;;;;5030354;28;9515;-72
2023/09/23 00:26:01;;;;;;;;;0.00;0.00;;;;;;;;5030591;28;8861;-73
2023/09/23 00:28:30;;;;;;;;;0.00;0.00;;;;;;;;5030197;28;9572;-73
2023/09/23 00:31:06;;;;;;;;;0.00;0.00;;;;;;;;5029704;28;9814;-73
2023/09/23 00:33:32;;;;;;;;;0.00;0.00;;;;;;;;5030732;28;9499;-72
2023/09/23 00:35:58;;;;;;;;;0.00;0.00;;;;;;;;5030359;28;9645;-72
2023/09/23 00:38:24;;;;;;;;;0.75;0.00;;;;;;;;5030083;28;8843;-71
2023/09/23 00:40:51;;;;;;;;;0.00;0.00;;;;;;;;5030196;28;9608;-72
2023/09/23 00:43:18;;;;;;;;;0.00;0.00;;;;;;;;5030147;28;8808;-71
2023/09/23 00:45:48;;;;;;;;;0.00;0.00;;;;;;;;5045440;28;9582;-72
2023/09/23 00:48:14;;;;;;;;;0.00;0.00;;;;;;;;5029702;28;9730;-72
2023/09/23 00:50:39;;;;;;;;;0.00;0.00;;;;;;;;5030078;28;9575;-72
2023/09/23 00:53:06;;;;;;;;;0.75;0.00;;;;;;;;5029942;28;9733;-72
2023/09/23 00:55:39;;;;;;;;;0.00;0.00;;;;;;;;5045083;28;8942;-72
2023/09/23 00:58:07;;;;;;;;;0.00;0.00;;;;;;;;5029939;28;9952;-71
2023/09/23 01:00:36;;;;;;;;;0.00;0.00;;;;;;;;5030143;28;10387;-70
2023/09/23 01:03:01;;;;;;;;;0.00;0.00;;;;;;;;5029708;28;9749;-72
2023/09/23 01:05:28;;;;;;;;;0.75;0.00;;;;;;;;5029688;28;9832;-71
2023/09/23 01:08:00;;;;;;;;;1.00;0.00;;;;;;;;5045372;28;8889;-71
2023/09/23 01:10:26;;;;;;;;;0.00;0.00;;;;;;;;5030017;28;9725;-72
2023/09/23 01:12:51;;;;;;;;;0.00;0.00;;;;;;;;5029590;28;9679;-72
2023/09/23 01:15:18;;;;;;;;;0.00;0.00;;;;;;;;5029928;28;8804;-72
2023/09/23 01:17:48;;;;;;;;;0.00;0.00;;;;;;;;5029677;28;8827;-72
2023/09/23 01:20:14;;;;;;;;;0.00;0.00;;;;;;;;5029506;28;9645;-71
2023/09/23 01:22:39;;;;;;;;;1.00;0.00;;;;;;;;5044340;28;10493;-71
2023/09/23 01:25:05;;;;;;;;;0.00;0.00;;;;;;;;5029567;28;8824;-72
2023/09/23 01:27:34;;;;;;;;;0.00;0.00;;;;;;;;5029189;28;8784;-71
2023/09/23 01:30:03;;;;;;;;;0.00;0.00;;;;;;;;5029655;28;8898;-72
2023/09/23 01:32:34;;;;;;;;;0.00;0.00;;;;;;;;5029413;28;9568;-72
2023/09/23 01:35:03;;;;;;;;;0.00;0.00;;;;;;;;5029422;28;9630;-71
2023/09/23 01:37:29;;;;;;;;;1.00;0.00;;;;;;;;5044507;28;9641;-72
2023/09/23 01:39:55;;;;;;;;;0.00;0.00;;;;;;;;5028948;28;9788;-72
2023/09/23 01:42:20;;;;;;;;;0.00;0.00;;;;;;;;5029323;28;9818;-72
2023/09/23 01:44:46;;;;;;;;;1.00;0.00;;;;;;;;5029236;28;8885;-72
2023/09/23 01:47:12;;;;;;;;;0.00;0.00;;;;;;;;5029000;28;11489;-71
2023/09/23 01:49:38;;;;;;;;;1.00;0.00;;;;;;;;5030678;28;8811;-72
2023/09/23 01:52:03;;;;;;;;;0.25;0.00;;;;;;;;5033263;28;8800;-71
2023/09/23 01:54:29;;;;;;;;;0.00;0.00;;;;;;;;5033424;28;9666;-71
2023/09/23 01:56:54;;;;;;;;;0.00;0.00;;;;;;;;5033226;28;8800;-72
2023/09/23 01:59:20;;;;;;;;;0.00;0.00;;;;;;;;5032908;28;8827;-72
2023/09/23 02:01:45;;;;;;;;;1.25;0.00;;;;;;;;5033398;28;8800;-71
2023/09/23 02:04:11;;;;;;;;;0.00;0.00;;;;;;;;5033241;28;9592;-72
2023/09/23 02:06:40;;;;;;;;;0.00;0.00;;;;;;;;5033210;28;8792;-72
2023/09/23 02:09:08;;;;;;;;;0.00;0.00;;;;;;;;5033170;28;8926;-72
2023/09/23 02:11:34;;;;;;;;;0.00;0.00;;;;;;;;5033034;28;9610;-72
2023/09/23 02:14:01;;;;;;;;;0.00;0.00;;;;;;;;5032674;28;9503;-72
2023/09/23 02:16:26;;;;;;;;;0.00;0.00;;;;;;;;5048088;28;8901;-72
2023/09/23 02:18:52;;;;;;;;;0.00;0.00;;;;;;;;5032669;28;9608;-72
2023/09/23 02:21:20;;;;;;;;;0.00;0.00;;;;;;;;5032737;28;8800;-72
2023/09/23 02:23:45;;;;;;;;;0.00;0.00;;;;;;;;5048080;28;8859;-72
2023/09/23 02:26:11;;;;;;;;;0.00;0.00;;;;;;;;5032616;28;9810;-72
2023/09/23 02:28:37;;;;;;;;;0.25;0.00;;;;;;;;5032589;28;8804;-72
2023/09/23 02:31:02;;;;;;;;;0.00;0.00;;;;;;;;5032091;28;9589;-72
2023/09/23 02:33:29;;;;;;;;;0.00;0.00;;;;;;;;5032565;28;9570;-72
2023/09/23 02:35:54;;;;;;;;;0.00;0.00;;;;;;;;5032486;28;8937;-72
2023/09/23 02:38:21;;;;;;;;;1.25;0.00;;;;;;;;5032180;28;9676;-72
2023/09/23 02:40:48;;;;;;;;;0.00;0.00;;;;;;;;5032515;28;8800;-72
2023/09/23 02:43:14;;;;;;;;;0.00;0.00;;;;;;;;5032130;28;9438;-73
2023/09/23 02:45:39;;;;;;;;;0.00;0.00;;;;;;;;5030928;28;9669;-73
2023/09/23 02:48:05;;;;;;;;;1.00;1.00;;;;;;;;5032205;28;9582;-73
2023/09/23 02:50:31;;;;;;;;;0.00;0.00;;;;;;;;5047575;28;8820;-72
2023/09/23 02:52:56;;;;;;;;;0.00;0.00;;;;;;;;5047586;28;8950;-72
2023/09/23 02:55:22;;;;;;;;;0.00;0.00;;;;;;;;5031996;28;8894;-73
2023/09/23 02:57:49;;;;;;;;;0.00;0.00;;;;;;;;5031923;28;8816;-73
2023/09/23 03:00:19;;;;;;;;;0.00;0.00;;;;;;;;5031513;28;9573;-72
2023/09/23 03:02:45;;;;;;;;;2.00;0.00;;;;;;;;5031953;28;9571;-72
2023/09/23 03:05:16;;;;;;;;;0.00;0.00;;;;;;;;5032103;28;9638;-72
2023/09/23 03:07:42;;;;;;;;;0.00;0.00;;;;;;;;5031724;28;9591;-72
2023/09/23 03:10:12;;;;;;;;;0.75;0.00;;;;;;;;5032046;28;9633;-72
2023/09/23 03:12:43;;;;;;;;;1.00;0.00;;;;;;;;5031617;28;8787;-71
2023/09/23 03:15:14;;;;;;;;;0.50;0.00;;;;;;;;5031829;28;9511;-72
2023/09/23 03:17:50;;;;;;;;;1.00;0.00;;;;;;;;5031698;28;9618;-72
2023/09/23 03:20:16;;;;;;;;;0.00;0.00;;;;;;;;5047030;28;10318;-72
2023/09/23 03:22:42;;;;;;;;;1.00;0.00;;;;;;;;5031679;28;9419;-72
2023/09/23 03:25:08;;;;;;;;;0.00;0.00;;;;;;;;5031322;28;9573;-72
2023/09/23 03:27:33;;;;;;;;;0.00;0.00;;;;;;;;5031488;28;8862;-72
2023/09/23 03:30:00;;;;;;;;;0.00;0.00;;;;;;;;5031516;28;9557;-72
2023/09/23 03:32:26;;;;;;;;;1.00;0.00;;;;;;;;5031551;28;8834;-72
2023/09/23 03:34:52;;;;;;;;;0.00;0.00;;;;;;;;5020123;28;9597;-72
2023/09/23 03:37:17;;;;;;;;;1.00;0.00;;;;;;;;5011273;28;8810;-72
2023/09/23 03:39:43;;;;;;;;;0.00;0.00;;;;;;;;5011571;28;9610;-72
2023/09/23 03:42:09;;;;;;;;;0.00;0.00;;;;;;;;5011211;28;8819;-72
2023/09/23 03:44:35;;;;;;;;;0.00;0.00;;;;;;;;5028857;28;8800;-72
2023/09/23 03:47:01;;;;;;;;;2.00;0.00;;;;;;;;5030815;28;8818;-72
2023/09/23 03:49:26;;;;;;;;;0.25;0.00;;;;;;;;5031545;28;9713;-72
2023/09/23 03:51:52;;;;;;;;;0.00;0.00;;;;;;;;5031317;28;8826;-71
2023/09/23 03:54:17;;;;;;;;;0.00;0.00;;;;;;;;5029616;28;8812;-72
2023/09/23 03:56:43;;;;;;;;;1.00;0.00;;;;;;;;5030843;28;8800;-72
2023/09/23 03:59:08;;;;;;;;;0.75;0.00;;;;;;;;5030661;28;9554;-71
2023/09/23 04:01:36;;;;;;;;;0.00;0.00;;;;;;;;5030486;28;8804;-71
2023/09/23 04:04:02;;;;;;;;;0.00;0.00;;;;;;;;5031055;28;8794;-72
2023/09/23 04:06:27;;;;;;;;;0.00;0.00;;;;;;;;5030748;28;9746;-72
2023/09/23 04:08:55;;;;;;;;;1.00;0.00;;;;;;;;5029372;28;8812;-72
2023/09/23 04:11:20;;;;;;;;;0.00;0.00;;;;;;;;5030315;28;8905;-72
2023/09/23 04:13:46;;;;;;;;;0.00;0.00;;;;;;;;5030252;28;10286;-71
2023/09/23 04:16:11;;;;;;;;;0.00;0.00;;;;;;;;5030654;28;8866;-72
2023/09/23 04:18:37;;;;;;;;;1.00;0.00;;;;;;;;5028710;28;8904;-72
2023/09/23 04:21:02;;;;;;;;;0.00;0.00;;;;;;;;5030426;28;8784;-72
2023/09/23 04:23:28;;;;;;;;;0.00;0.00;;;;;;;;5029091;28;8847;-71
2023/09/23 04:25:53;;;;;;;;;0.00;0.00;;;;;;;;5030567;28;8799;-72
2023/09/23 04:28:18;;;;;;;;;0.00;0.00;;;;;;;;5030469;28;8811;-71
2023/09/23 04:30:44;;;;;;;;;0.75;0.00;;;;;;;;5030735;28;8927;-71
2023/09/23 04:33:12;;;;;;;;;0.00;0.00;;;;;;;;5030616;28;8885;-71
2023/09/23 04:35:37;;;;;;;;;0.00;0.00;;;;;;;;5029932;28;8804;-71
2023/09/23 04:38:03;;;;;;;;;0.00;0.00;;;;;;;;5030426;28;9751;-71
2023/09/23 04:40:28;;;;;;;;;0.50;0.00;;;;;;;;5030530;28;8804;-71
2023/09/23 04:42:54;;;;;;;;;0.00;0.00;;;;;;;;5030006;28;8911;-71
2023/09/23 04:45:20;;;;;;;;;0.75;0.00;;;;;;;;5030554;28;8868;-71
2023/09/23 04:47:50;;;;;;;;;2.50;0.25;;;;;;;;5030758;28;8885;-71
2023/09/23 04:50:16;;;;;;;;;0.00;0.00;;;;;;;;5025266;28;9645;-72
2023/09/23 04:52:42;;;;;;;;;0.00;0.00;;;;;;;;5029901;28;9646;-72
2023/09/23 04:55:08;;;;;;;;;0.25;0.00;;;;;;;;5030025;28;9722;-72
2023/09/23 04:57:33;;;;;;;;;0.00;0.00;;;;;;;;5029906;28;8838;-72
2023/09/23 04:59:59;;;;;;;;;0.75;0.00;;;;;;;;5030086;28;8810;-72
2023/09/23 05:02:25;;;;;;;;;1.00;0.00;;;;;;;;5045616;28;8812;-72
2023/09/23 05:04:53;;;;;;;;;0.00;0.00;;;;;;;;5023832;28;8814;-71
2023/09/23 05:07:25;;;;;;;;;0.00;0.00;;;;;;;;5009933;28;9716;-71
2023/09/23 05:09:51;;;;;;;;;0.00;0.00;;;;;;;;5009982;28;9904;-71
2023/09/23 05:12:17;;;;;;;;;0.75;0.75;;;;;;;;5009306;28;9817;-71
2023/09/23 05:14:43;;;;;;;;;0.00;0.00;;;;;;;;5016258;28;9996;-71
2023/09/23 05:17:10;;;;;;;;;0.00;0.00;;;;;;;;5009690;28;8814;-71
2023/09/23 05:19:35;;;;;;;;;5.00;0.75;;;;;;;;5009631;28;8824;-72
2023/09/23 05:22:01;;;;;;;;;0.00;0.00;;;;;;;;5009550;28;9725;-68
2023/09/23 05:24:27;;;;;;;;;2.00;1.00;;;;;;;;5012633;28;8808;-69
2023/09/23 05:26:55;;;;;;;;;1.00;1.00;;;;;;;;5029342;28;8791;-69
2023/09/23 05:29:24;;;;;;;;;1.50;1.50;;;;;;;;5028694;28;9538;-70
2023/09/23 05:31:49;;;;;;;;;3.00;1.00;;;;;;;;5029196;28;10146;-70
2023/09/23 05:34:15;;;;;;;;;1.00;0.00;;;;;;;;5029026;28;10187;-70
2023/09/23 05:36:40;;;;;;;;;2.00;0.75;;;;;;;;5029223;28;8823;-69
2023/09/23 05:39:13;;;;;;;;;1.00;1.00;;;;;;;;5026282;28;8937;-77
2023/09/23 05:41:39;;;;;;;;;1.75;0.00;;;;;;;;5018225;28;9541;-72
2023/09/23 05:44:05;;;;;;;;;1.00;1.00;;;;;;;;5021500;28;9880;-75
2023/09/23 05:46:30;;;;;;;;;2.25;1.25;;;;;;;;5021711;28;9930;-76
2023/09/23 05:49:00;;;;;;;;;1.00;1.00;;;;;;;;5020267;28;9526;-76
2023/09/23 05:51:25;;;;;;;;;0.50;0.50;;;;;;;;5021042;28;8843;-78
2023/09/23 05:53:51;;;;;;;;;3.25;1.00;;;;;;;;5023847;28;9997;-78
2023/09/23 05:56:16;;;;;;;;;1.50;1.50;;;;;;;;5035069;28;8827;-78
2023/09/23 05:58:41;;;;;;;;;3.00;1.00;;;;;;;;5027377;28;8946;-78
2023/09/23 06:01:07;;;;;;;;;1.75;1.00;;;;;;;;5020657;28;8810;-75
2023/09/23 06:03:32;;;;;;;;;0.50;0.50;;;;;;;;5017816;28;8818;-78
2023/09/23 06:05:58;;;;;;;;;0.25;0.25;;;;;;;;5019528;28;8962;-76
2023/09/23 06:08:23;;;;;;;;;3.50;2.75;;;;;;;;5024076;28;8824;-78
2023/09/23 06:10:48;;;;;;;;;1.00;1.00;;;;;;;;5027582;28;8830;-77
2023/09/23 06:13:14;;;;;;;;;0.75;0.25;;;;;;;;5021508;28;8848;-79
2023/09/23 06:15:39;;;;;;;;;2.25;1.00;;;;;;;;5021422;28;8816;-78
2023/09/23 06:18:06;;;;;;;;;1.00;0.75;;;;;;;;5028347;28;8893;-80
2023/09/23 06:20:33;;;;;;;;;1.00;0.50;;;;;;;;5022642;28;8796;-78
2023/09/23 06:22:58;;;;;;;;;2.00;2.00;;;;;;;;5044601;28;9896;-81
2023/09/23 06:25:23;;;;;;;;;2.50;1.00;;;;;;;;5028809;28;10690;-79
2023/09/23 06:27:49;;;;;;;;;1.75;1.75;;;;;;;;5028363;28;9610;-75
2023/09/23 06:30:15;;;;;;;;;2.25;2.00;;;;;;;;5029103;28;8788;-77
2023/09/23 06:32:41;;;;;;;;;1.00;1.00;;;;;;;;5028932;28;8874;-77
2023/09/23 06:35:06;;;;;;;;;19.75;18.25;;;;;;;;5025392;28;9731;-76
2023/09/23 06:37:32;;;;;;;;;19.50;18.50;;;;;;;;5030352;28;8842;-78
2023/09/23 06:39:57;;;;;;;;;38.25;33.50;;;;;;;;5027825;28;8946;-81
2023/09/23 06:42:23;;;;;;;;;57.75;45.00;;;;;;;;5031820;28;8851;-75
2023/09/23 06:44:48;;;;;;;;;16.50;12.75;;;;;;;;5026649;28;9580;-80
2023/09/23 06:47:14;;;;;;;;;1.25;1.25;;;;;;;;5031786;28;9534;-77
2023/09/23 06:49:39;;;;;;;;;3.00;2.50;;;;;;;;5046797;28;8940;-77
2023/09/23 06:52:05;;;;;;;;;4.50;4.00;;;;;;;;5047333;28;8843;-77
2023/09/23 06:54:30;;;;;;;;;3.00;3.00;;;;;;;;5031997;28;8893;-77
2023/09/23 06:56:55;;;;;;;;;3.00;3.00;;;;;;;;5032095;28;8843;-75
2023/09/23 06:59:21;;;;;;;;;5.75;4.25;;;;;;;;5045872;28;8843;-75
2023/09/23 07:01:46;;;;;;;;;2.50;2.50;;;;;;;;5031400;28;8788;-75
2023/09/23 07:04:12;;;;;;;;;3.50;3.00;;;;;;;;5031578;28;8808;-84
2023/09/23 07:06:37;;;;;;;;;4.00;3.00;;;;;;;;5031715;28;8819;-85
2023/09/23 07:09:05;;;;;;;;;5.00;3.00;;;;;;;;5031516;28;8824;-77
2023/09/23 07:11:30;;;;;;;;;3.25;3.25;;;;;;;;5031507;28;8808;-72
2023/09/23 07:13:58;;;;;;;;;5.75;3.75;;;;;;;;5030707;28;9805;-79
2023/09/23 07:16:23;;;;;;;;;4.25;3.00;;;;;;;;5046366;28;9557;-75
2023/09/23 07:18:49;;;;;;;;;3.00;2.00;;;;;;;;5029820;28;9950;-73
2023/09/23 07:21:14;;;;;;;;;2.50;1.00;;;;;;;;5031389;28;8917;-73
2023/09/23 07:23:39;;;;;;;;;1.25;1.00;;;;;;;;5030865;28;8808;-73
2023/09/23 07:26:05;;;;;;;;;2.00;1.00;;;;;;;;5031588;28;8830;-76
2023/09/23 07:28:30;;;;;;;;;1.00;0.00;;;;;;;;5037632;28;8850;-80
2023/09/23 07:30:56;;;;;;;;;1.25;1.00;;;;;;;;5020083;28;9004;-80
2023/09/23 07:33:22;;;;;;;;;1.50;0.75;;;;;;;;5020991;28;8806;-81
2023/09/23 07:35:47;;;;;;;;;0.25;0.25;;;;;;;;5021227;28;9644;-81
2023/09/23 07:38:13;;;;;;;;;1.00;0.00;;;;;;;;5021812;28;8826;-82
2023/09/23 07:40:39;;;;;;;;;0.25;0.25;;;;;;;;5019573;28;8900;-80
2023/09/23 07:43:04;;;;;;;;;1.00;0.00;;;;;;;;5024110;28;8847;-80
2023/09/23 07:45:30;;;;;;;;;2.25;1.00;;;;;;;;5035765;28;9617;-82
2023/09/23 07:47:55;;;;;;;;;3.00;1.00;;;;;;;;5022057;28;8917;-83
2023/09/23 07:50:21;;;;;;;;;0.00;0.00;;;;;;;;5036604;28;9593;-80
2023/09/23 07:52:47;;;;;;;;;0.25;0.00;;;;;;;;5046298;28;8824;-78
2023/09/23 07:55:13;;;;;;;;;2.25;0.75;;;;;;;;5031202;28;9647;-80
2023/09/23 07:57:38;;;;;;;;;1.25;0.00;;;;;;;;5030474;28;8830;-80
2023/09/23 08:00:04;;;;;;;;;0.00;0.00;;;;;;;;5046084;28;12323;-81
2023/09/23 08:02:29;;;;;;;;;1.00;0.00;;;;;;;;5046329;28;8938;-81
2023/09/23 08:04:54;;;;;;;;;1.00;0.50;;;;;;;;5031063;28;8808;-75
2023/09/23 08:07:20;;;;;;;;;3.00;3.00;;;;;;;;5030788;28;8854;-72
2023/09/23 08:09:45;;;;;;;;;4.00;2.75;;;;;;;;5030787;28;8816;-72
2023/09/23 08:12:11;;;;;;;;;2.75;2.75;;;;;;;;5030681;28;8788;-73
2023/09/23 08:14:36;;;;;;;;;1.00;0.67;;;;;;;;5029932;28;8803;-73
2023/09/23 08:17:02;;;;;;;;;0.00;0.00;;;;;;;;5027541;28;8819;-72
2023/09/23 08:19:27;;;;;;;;;0.00;0.00;;;;;;;;5015846;28;8834;-72
2023/09/23 08:21:53;;;;;;;;;1.00;1.00;;;;;;;;5015881;28;8804;-75
2023/09/23 08:24:19;;;;;;;;;2.33;1.67;;;;;;;;5021076;28;8808;-73
2023/09/23 08:26:44;;;;;;;;;2.67;2.00;;;;;;;;5015819;28;8826;-72
2023/09/23 08:29:09;;;;;;;;;2.00;1.00;;;;;;;;5010283;28;9136;-72
2023/09/23 08:31:39;;;;;;;;;2.00;2.00;;;;;;;;5010189;28;8806;-71
2023/09/23 08:34:09;;;;;;;;;0.50;0.50;;;;;;;;5010644;28;9623;-71
2023/09/23 08:36:35;;;;;;;;;1.00;1.00;;;;;;;;5010676;28;8806;-72
2023/09/23 08:39:00;;;;;;;;;1.25;1.00;;;;;;;;5010480;28;8865;-71
2023/09/23 08:41:26;;;;;;;;;5.00;2.67;;;;;;;;5010416;28;8798;-72
2023/09/23 08:43:51;;;;;;;;;1.67;1.67;;;;;;;;5022075;28;9692;-75
2023/09/23 08:46:18;;;;;;;;;1.33;1.00;;;;;;;;5034654;28;8858;-74
2023/09/23 08:48:43;;;;;;;;;3.00;2.25;;;;;;;;5036473;28;8976;-73
2023/09/23 08:51:11;;;;;;;;;3.33;2.00;;;;;;;;5019683;28;8923;-73
2023/09/23 08:53:39;;;;;;;;;3.00;3.00;;;;;;;;5020412;28;8815;-73
2023/09/23 08:56:06;;;;;;;;;2.75;2.00;;;;;;;;5020876;28;8816;-74
2023/09/23 08:58:32;;;;;;;;;2.00;1.25;;;;;;;;5019411;28;8933;-72
2023/09/23 09:00:57;;;;;;;;;1.00;1.00;;;;;;;;5019048;28;8915;-73
2023/09/23 09:03:22;;;;;;;;;3.67;2.00;;;;;;;;5018500;28;8911;-73
2023/09/23 09:05:48;;;;;;;;;2.00;2.00;;;;;;;;5027081;28;8854;-74
2023/09/23 09:08:14;;;;;;;;;4.00;2.00;;;;;;;;5029083;28;8824;-74
2023/09/23 09:10:42;;;;;;;;;2.00;2.00;;;;;;;;5029163;28;8804;-73
2023/09/23 09:13:07;;;;;;;;;1.25;1.25;;;;;;;;5044364;28;8814;-73
2023/09/23 09:15:33;;;;;;;;;5.00;3.67;;;;;;;;5029383;28;8799;-74
2023/09/23 09:17:59;;;;;;;;;3.00;2.00;;;;;;;;5029109;28;8954;-74
2023/09/23 09:20:24;;;;;;;;;2.67;2.00;;;;;;;;5029113;28;8867;-74
2023/09/23 09:22:51;;;;;;;;;4.67;4.67;;;;;;;;5029000;28;8881;-75
2023/09/23 09:25:17;;;;;;;;;3.25;1.25;;;;;;;;5028495;28;8925;-75
2023/09/23 09:27:43;;;;;;;;;3.00;3.00;;;;;;;;5029137;28;9534;-74
2023/09/23 09:30:11;;;;;;;;;2.00;2.00;;;;;;;;5042761;28;8957;-74
2023/09/23 09:32:36;;;;;;;;;3.00;2.00;;;;;;;;5028696;28;8839;-74
2023/09/23 09:35:05;;;;;;;;;1.00;1.00;;;;;;;;5028759;28;8831;-74
2023/09/23 09:37:31;;;;;;;;;2.75;1.75;;;;;;;;5020264;28;8814;-73
2023/09/23 09:39:57;;;;;;;;;3.00;0.67;;;;;;;;5009197;28;8858;-73
2023/09/23 09:42:30;;;;;;;;;2.25;1.50;;;;;;;;5009334;28;8834;-73
2023/09/23 09:44:56;;;;;;;;;1.75;1.50;;;;;;;;5009385;28;8845;-74
2023/09/23 09:47:24;;;;;;;;;2.50;2.00;;;;;;;;5009731;28;8837;-66
2023/09/23 09:49:53;;;;;;;;;1.00;1.00;;;;;;;;5024806;28;8819;-67
2023/09/23 09:52:22;;;;;;;;;1.00;0.00;;;;;;;;5008289;28;9565;-69
2023/09/23 09:54:52;;;;;;;;;1.50;1.25;;;;;;;;5011435;28;8818;-67
2023/09/23 09:57:19;;;;;;;;;0.00;0.00;;;;;;;;5018768;28;8849;-68
2023/09/23 09:59:44;;;;;;;;;0.80;0.00;;;;;;;;5024014;28;8920;-69
2023/09/23 10:02:11;;;;;;;;;0.25;0.00;;;;;;;;5043973;28;9598;-75
2023/09/23 10:04:37;;;;;;;;;0.25;0.00;;;;;;;;5029410;28;8918;-71
2023/09/23 10:07:05;;;;;;;;;1.00;1.00;;;;;;;;5029166;28;8834;-70
2023/09/23 10:09:32;;;;;;;;;2.25;2.00;;;;;;;;5029221;28;8850;-75
2023/09/23 10:11:59;;;;;;;;;3.00;2.00;;;;;;;;5032294;28;8908;-70
2023/09/23 10:14:26;;;;;;;;;3.00;2.75;;;;;;;;5032757;28;8829;-69
2023/09/23 10:16:59;;;;;;;;;1.00;1.00;;;;;;;;5047648;28;8916;-69
2023/09/23 10:19:31;;;;;;;;;2.50;1.00;;;;;;;;5032452;28;8854;-68
2023/09/23 10:22:08;;;;;;;;;2.50;2.50;;;;;;;;5031354;28;8847;-70
2023/09/23 10:24:34;;;;;;;;;6.50;2.00;;;;;;;;5032002;28;8822;-70
2023/09/23 10:27:11;;;;;;;;;1.00;0.33;;;;;;;;5032555;28;8796;-69
2023/09/23 10:29:47;;;;;;;;;3.00;0.75;;;;;;;;5032341;28;8828;-69
2023/09/23 10:32:14;;;;;;;;;2.50;2.50;;;;;;;;5032260;28;8815;-72
2023/09/23 10:34:47;;;;;;;;;0.50;0.00;;;;;;;;5032423;28;8808;-73
2023/09/23 10:37:12;;;;;;;;;2.50;0.75;;;;;;;;5027016;28;8818;-70
2023/09/23 10:39:43;;;;;;;;;1.00;1.00;;;;;;;;5021552;28;8836;-73
2023/09/23 10:42:15;;;;;;;;;3.75;2.50;;;;;;;;5025511;28;9554;-67
2023/09/23 10:44:40;;;;;;;;;3.50;3.00;;;;;;;;5022922;28;8799;-76
2023/09/23 10:47:05;;;;;;;;;3.00;1.33;;;;;;;;5023002;28;8820;-69
2023/09/23 10:49:31;;;;;;;;;4.33;2.33;;;;;;;;5020784;28;8869;-74
2023/09/23 10:51:57;;;;;;;;;1.00;1.00;;;;;;;;5021792;28;8909;-74
2023/09/23 10:54:24;;;;;;;;;5.25;4.50;;;;;;;;5023175;28;8924;-72
2023/09/23 10:56:49;;;;;;;;;0.25;0.25;;;;;;;;5036008;28;8934;-76
2023/09/23 10:59:15;;;;;;;;;2.00;2.00;;;;;;;;5023097;28;8958;-71
2023/09/23 11:01:40;;;;;;;;;1.33;1.33;;;;;;;;5016433;28;8833;-74
2023/09/23 11:04:11;;;;;;;;;3.33;3.33;;;;;;;;5012343;28;8818;-72
2023/09/23 11:06:40;;;;;;;;;1.25;1.25;;;;;;;;5012296;28;9591;-69
2023/09/23 11:09:06;;;;;;;;;1.00;1.00;;;;;;;;5012197;28;8881;-76
2023/09/23 11:11:35;;;;;;;;;2.00;2.00;;;;;;;;5011760;28;8802;-77
2023/09/23 11:14:00;;;;;;;;;2.00;1.00;;;;;;;;5021922;28;8808;-75
2023/09/23 11:16:25;;;;;;;;;1.33;1.33;;;;;;;;5030903;28;8824;-74
2023/09/23 11:18:52;;;;;;;;;0.00;0.00;;;;;;;;5027354;28;8871;-80
2023/09/23 11:21:17;;;;;;;;;0.50;0.00;;;;;;;;5031301;28;8926;-77
2023/09/23 11:23:43;;;;;;;;;3.33;1.00;;;;;;;;5031429;28;8811;-77
2023/09/23 11:26:08;;;;;;;;;0.00;0.00;;;;;;;;5030983;28;8835;-78
2023/09/23 11:28:34;;;;;;;;;1.00;1.00;;;;;;;;5030811;28;8832;-78
2023/09/23 11:30:59;;;;;;;;;0.00;0.00;;;;;;;;5030797;28;8842;-76
2023/09/23 11:33:24;;;;;;;;;0.67;0.00;;;;;;;;5031150;28;8803;-78
2023/09/23 11:35:50;;;;;;;;;0.00;0.00;;;;;;;;5029787;28;8808;-77
2023/09/23 11:38:16;;;;;;;;;2.00;1.00;;;;;;;;5021877;28;8858;-77
2023/09/23 11:40:42;;;;;;;;;0.00;0.00;;;;;;;;5011110;28;8815;-76
2023/09/23 11:43:08;;;;;;;;;1.00;0.00;;;;;;;;5017238;28;8930;-79
2023/09/23 11:45:33;;;;;;;;;0.00;0.00;;;;;;;;5031149;28;10473;-79
2023/09/23 11:47:59;;;;;;;;;0.00;0.00;;;;;;;;5030933;28;8835;-77
2023/09/23 11:50:25;;;;;;;;;0.00;0.00;;;;;;;;5029762;28;8939;-74
2023/09/23 11:52:52;;;;;;;;;0.00;0.00;;;;;;;;5031200;28;10784;-76
2023/09/23 11:55:17;;;;;;;;;2.50;0.00;;;;;;;;5031150;28;8807;-76
2023/09/23 11:57:43;;;;;;;;;0.33;0.00;;;;;;;;5031237;28;8800;-76
2023/09/23 12:00:10;;;;;;;;;2.00;1.00;;;;;;;;5026189;28;8894;-76
2023/09/23 12:02:39;;;;;;;;;2.25;1.25;;;;;;;;5014095;28;8830;-76
2023/09/23 12:05:07;;;;;;;;;0.75;0.75;;;;;;;;5028657;28;8844;-77
2023/09/23 12:07:32;;;;;;;;;1.25;0.00;;;;;;;;5030406;28;9616;-75
2023/09/23 12:09:58;;;;;;;;;1.00;1.00;;;;;;;;5020818;28;8816;-74
2023/09/23 12:12:23;;;;;;;;;0.00;0.00;;;;;;;;5030848;28;8804;-76
2023/09/23 12:14:50;;;;;;;;;1.00;1.00;;;;;;;;5030863;28;8835;-75
2023/09/23 12:17:16;;;;;;;;;2.00;0.00;;;;;;;;5031218;28;8811;-77
2023/09/23 12:19:44;;;;;;;;;1.33;0.33;;;;;;;;5030900;28;8874;-74
2023/09/23 12:22:12;;;;;;;;;0.25;0.25;;;;;;;;5030544;28;8839;-74
2023/09/23 12:24:37;;;;;;;;;3.75;0.75;;;;;;;;5030593;28;9628;-76
2023/09/23 12:27:03;;;;;;;;;0.67;0.00;;;;;;;;5030488;28;8803;-72
2023/09/23 12:29:28;;;;;;;;;1.00;1.00;;;;;;;;5030454;28;8812;-74
2023/09/23 12:31:54;;;;;;;;;0.67;0.00;;;;;;;;5030472;28;8905;-75
2023/09/23 12:34:19;;;;;;;;;0.00;0.00;;;;;;;;5029882;28;8807;-76
2023/09/23 12:36:44;;;;;;;;;1.33;1.00;;;;;;;;5030076;28;8803;-72
2023/09/23 12:39:10;;;;;;;;;1.00;0.00;;;;;;;;5029422;28;8848;-71
2023/09/23 12:41:35;;;;;;;;;0.00;0.00;;;;;;;;5029627;28;8811;-71
2023/09/23 12:44:01;;;;;;;;;1.33;0.67;;;;;;;;5029542;28;8917;-73
2023/09/23 12:46:26;;;;;;;;;1.00;0.33;;;;;;;;5029496;28;9542;-71
2023/09/23 12:48:51;;;;;;;;;0.33;0.00;;;;;;;;5029528;28;9515;-73
2023/09/23 12:51:17;;;;;;;;;4.00;3.00;;;;;;;;5029493;28;8885;-71
2023/09/23 12:53:43;;;;;;;;;2.00;1.00;;;;;;;;5027174;28;8835;-71
2023/09/23 12:56:10;;;;;;;;;1.00;1.00;;;;;;;;5042248;28;8828;-70
2023/09/23 12:58:35;;;;;;;;;0.00;0.00;;;;;;;;5026882;28;8896;-72
2023/09/23 13:01:04;;;;;;;;;3.00;1.00;;;;;;;;5042304;28;8926;-71
2023/09/23 13:03:29;;;;;;;;;1.50;0.50;;;;;;;;5026969;28;8831;-70
2023/09/23 13:05:55;;;;;;;;;0.00;0.00;;;;;;;;5027019;28;8792;-72
2023/09/23 13:08:23;;;;;;;;;2.00;2.00;;;;;;;;5027543;28;8930;-68
2023/09/23 13:10:48;;;;;;;;;4.00;1.00;;;;;;;;5029170;28;8842;-68
2023/09/23 13:13:14;;;;;;;;;0.00;0.00;;;;;;;;5028494;28;8839;-69
2023/09/23 13:15:40;;;;;;;;;0.00;0.00;;;;;;;;5029044;28;8873;-68
2023/09/23 13:18:05;;;;;;;;;1.25;0.00;;;;;;;;5028937;28;8835;-68
2023/09/23 13:20:31;;;;;;;;;0.00;0.00;;;;;;;;5029022;28;8827;-67
2023/09/23 13:22:56;;;;;;;;;1.00;0.33;;;;;;;;5029120;28;8803;-68
2023/09/23 13:25:21;;;;;;;;;1.67;0.33;;;;;;;;5029102;28;8811;-70
2023/09/23 16:01:36;;;;;;;;;2.00;2.00;;;;;;;;4978677;27;13401;-74
2023/09/23 16:04:01;;;;;;;;;1.00;1.00;;;;;;;;4948992;28;11105;-74
2023/09/23 16:06:27;;;;;;;;;1.00;1.00;;;;;;;;5029140;28;8831;-72
2023/09/23 16:08:53;;;;;;;;;1.00;1.00;;;;;;;;5025444;28;9530;-75
2023/09/23 16:11:19;;;;;;;;;2.33;1.00;;;;;;;;5026573;28;8819;-76
2023/09/23 16:13:44;;;;;;;;;0.00;0.00;;;;;;;;4994624;28;10965;-75
2023/09/23 16:16:09;;;;;;;;;1.67;1.00;;;;;;;;5025102;28;8951;-74
2023/09/23 16:18:35;;;;;;;;;0.00;0.00;;;;;;;;5026460;28;9503;-74
2023/09/23 16:21:00;;;;;;;;;1.00;1.00;;;;;;;;5025006;28;8941;-75
2023/09/23 16:23:26;;;;;;;;;1.00;1.00;;;;;;;;5025645;28;8858;-75
2023/09/23 16:25:51;;;;;;;;;1.00;1.00;;;;;;;;5026019;28;9507;-77
2023/09/23 16:28:17;;;;;;;;;0.67;0.67;;;;;;;;5025697;28;8808;-75
2023/09/23 16:30:42;;;;;;;;;1.00;1.00;;;;;;;;5024390;28;8828;-75
2023/09/23 16:33:07;;;;;;;;;0.00;0.00;;;;;;;;5026198;28;8793;-80
2023/09/23 16:35:33;;;;;;;;;2.00;0.00;;;;;;;;5025960;28;9017;-73
2023/09/23 16:37:58;;;;;;;;;1.00;1.00;;;;;;;;5041102;28;8828;-77
2023/09/23 16:40:24;;;;;;;;;4.67;3.33;;;;;;;;5025244;28;8823;-77
2023/09/23 16:42:49;;;;;;;;;5.00;1.00;;;;;;;;5040093;28;8835;-76
2023/09/23 16:45:14;;;;;;;;;0.67;0.67;;;;;;;;5024626;28;8803;-76
2023/09/23 16:47:40;;;;;;;;;1.00;1.00;;;;;;;;5025424;28;8808;-72
2023/09/23 16:50:06;;;;;;;;;5.25;1.75;;;;;;;;5039548;28;8842;-64
2023/09/23 16:52:32;;;;;;;;;0.00;0.00;;;;;;;;5023708;28;8855;-75
2023/09/23 16:55:00;;;;;;;;;0.00;0.00;;;;;;;;5023939;28;8824;-75
2023/09/23 16:57:25;;;;;;;;;0.00;0.00;;;;;;;;5024130;28;8881;-74
2023/09/23 16:59:51;;;;;;;;;0.00;0.00;;;;;;;;5029396;28;8826;-79
2023/09/23 17:02:17;;;;;;;;;4.67;1.00;;;;;;;;5043923;28;8774;-80
2023/09/23 17:04:46;;;;;;;;;0.67;0.67;;;;;;;;5042544;28;9623;-80
2023/09/23 17:07:13;;;;;;;;;1.00;1.00;;;;;;;;5043466;28;9130;-77
2023/09/23 17:09:39;;;;;;;;;1.00;0.00;;;;;;;;5023825;28;9755;-74
2023/09/23 17:12:05;;;;;;;;;2.00;0.00;;;;;;;;5012198;28;9146;-74
2023/09/23 17:14:30;;;;;;;;;0.67;0.00;;;;;;;;5028567;28;10044;-75
2023/09/23 17:16:56;;;;;;;;;0.00;0.00;;;;;;;;5030409;28;8810;-75
2023/09/23 17:19:22;;;;;;;;;0.00;0.00;;;;;;;;5031752;28;8817;-81
2023/09/23 17:21:48;;;;;;;;;2.00;0.00;;;;;;;;5030301;28;8826;-86
2023/09/23 17:24:14;;;;;;;;;0.00;0.00;;;;;;;;4997366;28;8844;-82